createdAt,value
2024-03-03T00:00:14.180Z,7.76
2024-03-03T00:02:44.729Z,8.34
2024-03-03T00:05:14.748Z,7.71
2024-03-03T00:07:44.715Z,8.25
2024-03-03T00:10:14.194Z,8.36
2024-03-03T00:12:43.505Z,8.34
2024-03-03T00:15:13.451Z,8.28
2024-03-03T00:17:44.040Z,8.20
2024-03-03T00:20:14.604Z,8.22
2024-03-03T00:22:43.816Z,8.23
2024-03-03T00:25:13.876Z,8.21
2024-03-03T00:27:43.189Z,8.26
2024-03-03T00:30:13.714Z,8.24
2024-03-03T00:32:47.718Z,8.06
2024-03-03T00:35:17.338Z,8.09
2024-03-03T00:37:46.402Z,7.54
2024-03-03T00:40:15.918Z,8.04
2024-03-03T00:42:45.266Z,8.08
2024-03-03T00:45:14.559Z,8.12
2024-03-03T00:47:45.554Z,8.09
2024-03-03T00:50:16.497Z,8.20
2024-03-03T00:52:45.661Z,8.21
2024-03-03T00:55:15.560Z,8.22
2024-03-03T00:57:45.010Z,8.12
2024-03-03T01:00:15.005Z,8.17
2024-03-03T01:02:44.697Z,8.21
2024-03-03T01:05:16.049Z,8.10
2024-03-03T01:07:45.290Z,8.06
2024-03-03T01:10:14.882Z,8.05
2024-03-03T01:12:43.875Z,8.14
2024-03-03T01:15:13.265Z,7.54
2024-03-03T01:17:42.897Z,8.10
2024-03-03T01:20:13.614Z,8.07
2024-03-03T01:22:44.548Z,8.08
2024-03-03T01:25:13.610Z,8.08
2024-03-03T01:27:42.874Z,8.14
2024-03-03T01:30:12.851Z,7.55
2024-03-03T01:32:41.904Z,7.59
2024-03-03T01:35:11.503Z,8.23
2024-03-03T01:37:40.651Z,8.26
2024-03-03T01:40:14.137Z,8.25
2024-03-03T01:42:43.694Z,8.26
2024-03-03T01:45:25.859Z,8.23
2024-03-03T01:47:56.529Z,8.29
2024-03-03T01:50:28.518Z,8.27
2024-03-03T01:52:58.271Z,8.28
2024-03-03T01:55:29.122Z,8.24
2024-03-03T01:58:04.211Z,8.30
2024-03-03T02:00:36.814Z,8.21
2024-03-03T02:03:09.664Z,8.27
2024-03-03T02:05:40.665Z,8.15
2024-03-03T02:08:10.260Z,8.22
2024-03-03T02:10:41.564Z,8.04
2024-03-03T02:13:11.439Z,8.05
2024-03-03T02:15:40.900Z,8.15
2024-03-03T02:18:10.925Z,8.16
2024-03-03T02:20:41.157Z,8.06
2024-03-03T02:23:11.885Z,8.02
2024-03-03T02:25:42.467Z,8.12
2024-03-03T02:28:12.756Z,8.08
2024-03-03T02:30:42.502Z,8.02
2024-03-03T02:33:12.658Z,7.89
2024-03-03T02:35:41.926Z,7.81
2024-03-03T02:38:13.018Z,7.82
2024-03-03T02:40:42.540Z,7.84
2024-03-03T02:43:11.909Z,7.83
2024-03-03T02:45:41.614Z,7.79
2024-03-03T02:48:11.948Z,7.71
2024-03-03T02:50:41.635Z,7.70
2024-03-03T02:53:12.967Z,7.68
2024-03-03T02:55:43.418Z,7.67
2024-03-03T02:58:13.784Z,7.67
2024-03-03T03:00:43.257Z,7.81
2024-03-03T03:03:12.936Z,7.85
2024-03-03T03:06:00.165Z,7.18
2024-03-03T03:08:37.128Z,7.93
2024-03-03T03:11:08.162Z,7.89
2024-03-03T03:13:40.301Z,8.02
2024-03-03T03:16:11.765Z,7.91
2024-03-03T03:18:41.833Z,7.97
2024-03-03T03:21:11.640Z,7.96
2024-03-03T03:23:44.326Z,7.96
2024-03-03T03:26:14.601Z,7.93
2024-03-03T03:28:45.029Z,7.77
2024-03-03T03:31:14.389Z,7.92
2024-03-03T03:33:44.464Z,7.89
2024-03-03T03:36:15.239Z,7.91
2024-03-03T03:38:46.861Z,7.87
2024-03-03T03:41:25.507Z,7.83
2024-03-03T03:43:55.799Z,7.68
2024-03-03T03:46:24.926Z,7.65
2024-03-03T03:48:54.459Z,7.85
2024-03-03T03:51:24.153Z,7.89
2024-03-03T03:53:56.436Z,8.00
2024-03-03T03:56:26.500Z,7.97
2024-03-03T03:58:56.296Z,8.01
2024-03-03T04:01:26.316Z,8.01
2024-03-03T04:03:57.180Z,8.06
2024-03-03T04:06:28.452Z,8.06
2024-03-03T04:09:00.242Z,8.16
2024-03-03T04:11:30.031Z,8.25
2024-03-03T04:14:05.773Z,8.32
2024-03-03T04:16:35.593Z,8.33
2024-03-03T04:19:05.070Z,8.36
2024-03-03T04:21:35.155Z,8.27
2024-03-03T04:24:07.614Z,8.33
2024-03-03T04:26:37.210Z,8.32
2024-03-03T04:29:06.742Z,8.33
2024-03-03T04:31:36.101Z,8.48
2024-03-03T04:34:05.658Z,8.57
2024-03-03T04:36:35.259Z,8.58
2024-03-03T04:39:04.803Z,8.03
2024-03-03T04:41:35.934Z,8.69
2024-03-03T04:44:06.657Z,8.62
2024-03-03T04:46:37.323Z,8.50
2024-03-03T04:49:08.503Z,8.53
2024-03-03T04:51:38.352Z,8.57
2024-03-03T04:54:08.731Z,8.52
2024-03-03T04:56:39.103Z,8.59
2024-03-03T04:59:09.113Z,8.67
2024-03-03T05:01:44.230Z,8.71
2024-03-03T05:04:14.975Z,8.78
2024-03-03T05:06:49.938Z,8.72
2024-03-03T05:09:20.180Z,8.73
2024-03-03T05:11:50.945Z,8.82
2024-03-03T05:14:21.093Z,8.78
2024-03-03T05:16:50.313Z,8.71
2024-03-03T05:19:19.636Z,8.83
2024-03-03T05:21:49.363Z,8.82
2024-03-03T05:24:18.806Z,8.78
2024-03-03T05:26:50.025Z,8.81
2024-03-03T05:29:19.307Z,8.90
2024-03-03T05:31:48.874Z,8.89
2024-03-03T05:34:18.285Z,8.92
2024-03-03T05:36:48.781Z,8.91
2024-03-03T05:39:18.764Z,8.74
2024-03-03T05:41:49.820Z,8.83
2024-03-03T05:44:19.140Z,8.91
2024-03-03T05:46:48.822Z,8.98
2024-03-03T05:49:18.221Z,8.96
2024-03-03T05:51:47.534Z,9.02
2024-03-03T05:54:17.022Z,9.04
2024-03-03T05:56:47.799Z,8.96
2024-03-03T05:59:24.156Z,8.98
2024-03-03T06:01:55.573Z,8.96
2024-03-03T06:04:25.247Z,8.96
2024-03-03T06:06:54.600Z,9.01
2024-03-03T06:09:24.436Z,8.95
2024-03-03T06:11:53.608Z,8.99
2024-03-03T06:14:25.148Z,8.41
2024-03-03T06:16:54.498Z,9.00
2024-03-03T06:19:24.303Z,8.34
2024-03-03T06:21:54.006Z,9.01
2024-03-03T06:24:22.998Z,9.01
2024-03-03T06:26:53.200Z,8.75
2024-03-03T06:29:23.845Z,9.09
2024-03-03T06:31:53.043Z,9.08
2024-03-03T06:34:22.139Z,8.98
2024-03-03T06:36:51.951Z,8.98
2024-03-03T06:39:21.064Z,8.47
2024-03-03T06:41:50.000Z,8.50
2024-03-03T06:44:19.444Z,9.14
2024-03-03T06:46:49.678Z,9.10
2024-03-03T06:49:18.866Z,8.53
2024-03-03T06:51:50.197Z,9.10
2024-03-03T06:54:19.489Z,9.19
2024-03-03T06:56:48.961Z,9.17
2024-03-03T06:59:18.248Z,9.27
2024-03-03T07:01:49.443Z,9.28
2024-03-03T07:04:25.738Z,9.33
2024-03-03T07:06:56.003Z,9.36
2024-03-03T07:09:25.778Z,9.36
2024-03-03T07:11:56.636Z,9.41
2024-03-03T07:14:27.582Z,9.46
2024-03-03T07:16:58.750Z,9.10
2024-03-03T07:19:28.129Z,9.60
2024-03-03T07:21:57.697Z,9.61
2024-03-03T07:24:26.819Z,9.60
2024-03-03T07:26:56.021Z,9.68
2024-03-03T07:29:30.935Z,9.68
2024-03-03T07:32:04.989Z,9.61
2024-03-03T07:34:34.296Z,9.58
2024-03-03T07:37:03.719Z,9.68
2024-03-03T07:39:32.935Z,9.74
2024-03-03T07:42:03.971Z,9.75
2024-03-03T07:44:33.539Z,9.26
2024-03-03T07:47:04.802Z,9.96
2024-03-03T07:49:33.876Z,9.95
2024-03-03T07:52:02.965Z,10.02
2024-03-03T07:54:31.906Z,10.10
2024-03-03T07:57:04.220Z,10.11
2024-03-03T07:59:33.260Z,10.17
2024-03-03T08:02:04.324Z,10.21
2024-03-03T08:04:34.498Z,10.27
2024-03-03T08:07:04.658Z,10.18
2024-03-03T08:09:34.003Z,9.57
2024-03-03T08:12:08.443Z,9.68
2024-03-03T08:14:37.821Z,10.29
2024-03-03T08:17:08.829Z,10.27
2024-03-03T08:19:38.392Z,10.28
2024-03-03T08:22:07.938Z,10.38
2024-03-03T08:24:37.405Z,10.36
2024-03-03T08:27:07.040Z,10.37
2024-03-03T08:29:36.032Z,10.56
2024-03-03T08:32:08.505Z,10.66
2024-03-03T08:34:37.758Z,10.59
2024-03-03T08:37:07.042Z,10.58
2024-03-03T08:39:37.050Z,10.62
2024-03-03T08:42:06.707Z,10.68
2024-03-03T08:44:35.698Z,10.86
2024-03-03T08:47:05.509Z,10.94
2024-03-03T08:49:36.192Z,11.07
2024-03-03T08:52:07.205Z,10.95
2024-03-03T08:54:37.703Z,11.07
2024-03-03T08:57:10.572Z,11.18
2024-03-03T08:59:40.364Z,11.16
2024-03-03T09:02:09.673Z,11.18
2024-03-03T09:04:40.726Z,11.52
2024-03-03T09:07:10.015Z,11.50
2024-03-03T09:09:42.384Z,11.09
2024-03-03T09:12:13.305Z,11.66
2024-03-03T09:14:42.976Z,11.72
2024-03-03T09:17:12.924Z,11.74
2024-03-03T09:19:43.428Z,11.85
2024-03-03T09:22:12.732Z,11.93
2024-03-03T09:24:44.348Z,12.08
2024-03-03T09:27:13.406Z,12.18
2024-03-03T09:29:43.093Z,12.32
2024-03-03T09:32:13.069Z,12.18
2024-03-03T09:34:43.944Z,11.47
2024-03-03T09:37:47.769Z,11.82
2024-03-03T09:40:25.166Z,11.78
2024-03-03T09:42:56.816Z,11.31
2024-03-03T09:45:31.536Z,11.24
2024-03-03T09:48:05.061Z,11.83
2024-03-03T09:50:35.501Z,11.43
2024-03-03T09:53:08.848Z,12.17
2024-03-03T09:55:39.857Z,11.98
2024-03-03T09:58:11.911Z,12.06
2024-03-03T10:00:42.308Z,12.16
2024-03-03T10:03:12.770Z,12.22
2024-03-03T10:05:44.329Z,12.21
2024-03-03T10:08:15.715Z,12.23
2024-03-03T10:10:48.665Z,12.04
2024-03-03T10:13:19.201Z,12.22
2024-03-03T10:15:49.035Z,12.25
2024-03-03T10:18:21.993Z,12.19
2024-03-03T10:20:53.972Z,11.90
2024-03-03T10:23:25.287Z,11.87
2024-03-03T10:25:59.182Z,11.88
2024-03-03T10:28:29.026Z,11.41
2024-03-03T10:31:14.653Z,11.04
2024-03-03T10:33:58.641Z,11.82
2024-03-03T10:36:30.155Z,12.01
2024-03-03T10:38:59.651Z,12.10
2024-03-03T10:41:28.803Z,11.95
2024-03-03T10:43:58.839Z,12.11
2024-03-03T10:46:29.139Z,12.24
2024-03-03T10:48:59.116Z,11.66
2024-03-03T10:51:32.572Z,12.12
2024-03-03T10:54:02.037Z,12.22
2024-03-03T10:56:32.940Z,12.29
2024-03-03T10:59:06.117Z,12.66
2024-03-03T11:01:36.849Z,12.77
2024-03-03T11:04:08.601Z,12.99
2024-03-03T11:06:40.812Z,13.15
2024-03-03T11:09:12.416Z,13.06
2024-03-03T11:11:48.291Z,13.07
2024-03-03T11:14:19.330Z,13.14
2024-03-03T11:16:53.933Z,13.36
2024-03-03T11:19:32.377Z,13.77
2024-03-03T11:22:05.828Z,13.53
2024-03-03T11:24:42.783Z,13.84
2024-03-03T11:27:17.226Z,14.06
2024-03-03T11:29:48.270Z,13.69
2024-03-03T11:32:19.016Z,14.32
2024-03-03T11:34:49.672Z,14.19
2024-03-03T11:37:22.020Z,14.12
2024-03-03T11:39:56.994Z,14.21
2024-03-03T11:42:40.147Z,13.84
2024-03-03T11:45:12.672Z,13.23
2024-03-03T11:47:49.097Z,13.65
2024-03-03T11:50:25.997Z,14.10
2024-03-03T11:52:56.488Z,14.38
2024-03-03T11:55:28.481Z,14.68
2024-03-03T11:58:00.657Z,14.97
2024-03-03T12:00:31.794Z,14.85
2024-03-03T12:03:02.794Z,14.85
2024-03-03T12:05:32.643Z,14.45
2024-03-03T12:08:07.954Z,14.34
2024-03-03T12:10:37.800Z,14.25
2024-03-03T12:13:08.445Z,14.36
2024-03-03T12:15:38.465Z,14.05
2024-03-03T12:18:12.728Z,14.74
2024-03-03T12:20:44.804Z,14.85
2024-03-03T12:23:17.262Z,14.88
2024-03-03T12:25:46.700Z,14.97
2024-03-03T12:28:16.619Z,14.58
2024-03-03T12:30:46.482Z,14.52
2024-03-03T12:33:15.934Z,14.26
2024-03-03T12:35:46.768Z,15.43
2024-03-03T12:38:17.538Z,16.02
2024-03-03T12:40:46.943Z,16.03
2024-03-03T12:43:17.330Z,17.07
2024-03-03T12:45:47.185Z,17.34
2024-03-03T12:48:16.865Z,16.71
2024-03-03T12:51:01.288Z,16.50
2024-03-03T12:53:40.965Z,16.35
2024-03-03T12:56:20.628Z,16.02
2024-03-03T12:58:50.627Z,15.76
2024-03-03T13:01:20.549Z,15.43
2024-03-03T13:03:55.014Z,15.13
2024-03-03T13:06:24.308Z,14.70
2024-03-03T13:08:55.244Z,14.57
2024-03-03T13:11:25.182Z,14.56
2024-03-03T13:13:57.863Z,14.84
2024-03-03T13:16:30.475Z,14.97
2024-03-03T13:19:00.684Z,15.25
2024-03-03T13:21:30.351Z,15.03
2024-03-03T13:26:53.748Z,14.69
2024-03-03T13:29:23.923Z,14.66
2024-03-03T13:31:53.603Z,14.52
2024-03-03T13:34:23.097Z,14.48
2024-03-03T13:36:52.461Z,14.41
2024-03-03T13:39:21.737Z,14.29
2024-03-03T13:41:52.898Z,14.02
2024-03-03T13:44:22.621Z,13.99
2024-03-03T13:46:51.820Z,14.06
2024-03-03T13:49:21.214Z,13.35
2024-03-03T13:51:50.276Z,13.83
2024-03-03T13:54:19.359Z,13.23
2024-03-03T13:56:48.870Z,13.71
2024-03-03T13:59:19.590Z,13.66
2024-03-03T14:01:49.412Z,13.81
2024-03-03T14:04:18.735Z,13.94
2024-03-03T14:06:48.113Z,14.07
2024-03-03T14:09:17.621Z,14.01
2024-03-03T14:11:48.857Z,13.89
2024-03-03T14:14:19.542Z,14.05
2024-03-03T14:16:49.003Z,13.62
2024-03-03T14:19:32.516Z,14.23
2024-03-03T14:22:06.112Z,14.19
2024-03-03T14:24:35.545Z,14.37
2024-03-03T14:27:05.230Z,14.63
2024-03-03T14:29:36.007Z,14.55
2024-03-03T14:32:05.817Z,14.47
2024-03-03T14:34:35.142Z,14.41
2024-03-03T14:37:04.692Z,14.43
2024-03-03T14:39:33.591Z,14.38
2024-03-03T14:42:02.694Z,14.53
2024-03-03T14:44:31.898Z,14.55
2024-03-03T14:47:03.796Z,14.50
2024-03-03T14:49:34.774Z,13.93
2024-03-03T14:52:05.831Z,14.10
2024-03-03T14:54:34.870Z,13.98
2024-03-03T14:57:04.068Z,13.79
2024-03-03T14:59:33.181Z,13.61
2024-03-03T15:02:04.516Z,12.98
2024-03-03T15:04:33.753Z,13.51
2024-03-03T15:07:03.541Z,13.42
2024-03-03T15:09:33.109Z,12.76
2024-03-03T15:12:02.455Z,12.71
2024-03-03T15:14:32.498Z,13.26
2024-03-03T15:17:03.275Z,13.13
2024-03-03T15:19:32.613Z,13.07
2024-03-03T15:22:01.716Z,13.02
2024-03-03T15:24:31.674Z,12.48
2024-03-03T15:27:00.677Z,12.82
2024-03-03T15:29:30.978Z,12.91
2024-03-03T15:32:00.157Z,13.01
2024-03-03T15:34:31.531Z,12.52
2024-03-03T15:37:00.948Z,12.91
2024-03-03T15:39:30.339Z,12.91
2024-03-03T15:41:59.664Z,12.25
2024-03-03T15:44:28.961Z,12.72
2024-03-03T15:46:58.177Z,12.77
2024-03-03T15:49:27.481Z,12.57
2024-03-03T15:51:58.829Z,12.50
2024-03-03T15:54:28.311Z,12.36
2024-03-03T15:56:57.469Z,12.37
2024-03-03T15:59:27.080Z,12.23
2024-03-03T16:01:58.647Z,12.18
2024-03-03T16:04:28.101Z,12.07
2024-03-03T16:06:59.674Z,11.93
2024-03-03T16:09:29.597Z,11.33
2024-03-03T16:11:59.090Z,11.77
2024-03-03T16:14:29.111Z,11.75
2024-03-03T16:16:58.344Z,11.64
2024-03-03T16:19:32.617Z,11.68
2024-03-03T16:22:04.270Z,11.50
2024-03-03T16:24:34.218Z,11.43
2024-03-03T16:27:06.037Z,11.27
2024-03-03T16:29:35.368Z,11.24
2024-03-03T16:32:04.747Z,10.58
2024-03-03T16:34:34.257Z,10.97
2024-03-03T16:37:06.550Z,11.01
2024-03-03T16:39:36.183Z,10.64
2024-03-03T16:42:07.040Z,10.57
2024-03-03T16:44:36.206Z,10.32
2024-03-03T16:47:06.506Z,10.18
2024-03-03T16:49:38.605Z,10.01
2024-03-03T16:52:09.675Z,10.01
2024-03-03T16:54:39.715Z,9.95
2024-03-03T16:57:09.549Z,9.91
2024-03-03T16:59:38.956Z,9.63
2024-03-03T17:02:08.830Z,9.41
2024-03-03T17:04:38.912Z,9.47
2024-03-03T17:07:10.378Z,8.96
2024-03-03T17:09:40.160Z,9.03
2024-03-03T17:12:09.940Z,9.70
2024-03-03T17:14:39.270Z,9.61
2024-03-03T17:17:08.723Z,8.90
2024-03-03T17:19:38.514Z,9.71
2024-03-03T17:22:09.788Z,9.58
2024-03-03T17:24:38.833Z,9.46
2024-03-03T17:27:08.881Z,9.61
2024-03-03T17:29:39.019Z,9.50
2024-03-03T17:32:10.453Z,9.50
2024-03-03T17:34:40.728Z,9.40
2024-03-03T17:37:12.471Z,8.78
2024-03-03T17:39:42.245Z,8.84
2024-03-03T17:42:11.354Z,9.37
2024-03-03T17:44:40.865Z,9.29
2024-03-03T17:47:10.886Z,9.22
2024-03-03T17:49:40.649Z,9.10
2024-03-03T17:52:11.378Z,9.05
2024-03-03T17:54:41.004Z,9.09
2024-03-03T17:57:10.269Z,8.82
2024-03-03T17:59:39.722Z,8.75
2024-03-03T18:02:09.089Z,8.75
2024-03-03T18:04:38.134Z,8.70
2024-03-03T18:07:08.033Z,8.63
2024-03-03T18:09:40.418Z,8.76
2024-03-03T18:12:10.438Z,8.77
2024-03-03T18:14:39.367Z,8.83
2024-03-03T18:17:09.335Z,8.80
2024-03-03T18:19:53.522Z,8.79
2024-03-03T18:22:23.469Z,8.80
2024-03-03T18:24:55.657Z,8.14
2024-03-03T18:27:26.132Z,8.69
2024-03-03T18:29:55.636Z,8.67
2024-03-03T18:32:25.226Z,8.62
2024-03-03T18:34:54.973Z,8.68
2024-03-03T18:37:25.068Z,8.89
2024-03-03T18:39:57.166Z,9.02
2024-03-03T18:42:26.558Z,9.15
2024-03-03T18:44:57.836Z,9.13
2024-03-03T18:47:26.841Z,9.18
2024-03-03T18:49:57.910Z,9.10
2024-03-03T18:52:27.552Z,9.01
2024-03-03T18:55:00.438Z,8.91
2024-03-03T18:57:31.534Z,8.90
2024-03-03T19:00:01.386Z,8.89
2024-03-03T19:02:30.502Z,8.95
2024-03-03T19:05:00.515Z,8.93
2024-03-03T19:07:31.909Z,8.28
2024-03-03T19:10:02.957Z,9.02
2024-03-03T19:12:32.453Z,9.06
2024-03-03T19:15:02.158Z,9.09
2024-03-03T19:17:31.714Z,9.14
2024-03-03T19:20:01.236Z,9.11
2024-03-03T19:22:30.782Z,9.14
2024-03-03T19:25:02.017Z,9.23
2024-03-03T19:27:31.745Z,9.30
2024-03-03T19:30:01.399Z,9.31
2024-03-03T19:32:30.897Z,8.70
2024-03-03T19:35:01.044Z,8.75
2024-03-03T19:37:30.797Z,9.39
2024-03-03T19:40:01.524Z,8.90
2024-03-03T19:42:36.034Z,9.47
2024-03-03T19:45:07.105Z,9.59
2024-03-03T19:47:36.929Z,9.65
2024-03-03T19:50:10.319Z,9.01
2024-03-03T19:52:39.941Z,9.55
2024-03-03T19:55:11.444Z,9.53
2024-03-03T19:57:41.482Z,9.49
2024-03-03T20:00:16.450Z,9.46
2024-03-03T20:02:46.476Z,9.49
2024-03-03T20:05:16.432Z,8.91
2024-03-03T20:07:46.165Z,9.53
2024-03-03T20:10:17.578Z,9.54
2024-03-03T20:12:53.082Z,9.52
2024-03-03T20:15:25.285Z,9.54
2024-03-03T20:17:55.130Z,9.55
2024-03-03T20:20:25.762Z,9.53
2024-03-03T20:22:55.337Z,8.95
2024-03-03T20:25:26.768Z,9.57
2024-03-03T20:27:56.587Z,9.59
2024-03-03T20:30:26.686Z,8.97
2024-03-03T20:32:56.145Z,9.57
2024-03-03T20:35:26.283Z,9.56
2024-03-03T20:37:57.310Z,9.54
2024-03-03T20:40:28.154Z,9.51
2024-03-03T20:42:57.491Z,8.92
2024-03-03T20:45:27.602Z,9.52
2024-03-03T20:47:56.855Z,9.51
2024-03-03T20:50:27.234Z,9.47
2024-03-03T20:52:56.792Z,9.45
2024-03-03T20:55:27.510Z,9.40
2024-03-03T20:57:58.222Z,8.59
2024-03-03T21:00:28.401Z,9.37
2024-03-03T21:02:58.787Z,9.27
2024-03-03T21:05:30.364Z,8.63
2024-03-03T21:08:00.036Z,9.27
2024-03-03T21:10:31.434Z,9.29
2024-03-03T21:13:01.015Z,9.30
2024-03-03T21:15:30.817Z,8.62
2024-03-03T21:18:00.250Z,9.22
2024-03-03T21:20:29.447Z,9.21
2024-03-03T21:22:58.642Z,9.11
2024-03-03T21:25:27.882Z,8.60
2024-03-03T21:27:58.915Z,9.09
2024-03-03T21:30:29.934Z,8.99
2024-03-03T21:33:01.748Z,8.74
2024-03-03T21:35:30.827Z,8.41
2024-03-03T21:38:00.940Z,8.98
2024-03-03T21:40:35.782Z,8.92
2024-03-03T21:43:11.145Z,8.87
2024-03-03T21:45:42.301Z,8.32
2024-03-03T21:48:13.103Z,8.81
2024-03-03T21:50:45.012Z,8.84
2024-03-03T21:53:14.430Z,8.85
2024-03-03T21:55:45.753Z,8.88
2024-03-03T21:58:16.676Z,8.88
2024-03-03T22:00:46.311Z,9.01
2024-03-03T22:03:15.702Z,9.02
2024-03-03T22:05:45.216Z,8.98
2024-03-03T22:08:13.630Z,8.99
2024-03-03T22:10:42.717Z,8.95
2024-03-03T22:13:12.136Z,8.89
2024-03-03T22:15:43.284Z,8.90
2024-03-03T22:18:12.549Z,8.78
2024-03-03T22:20:44.514Z,8.85
2024-03-03T22:23:14.897Z,8.92
2024-03-03T22:25:44.545Z,8.97
2024-03-03T22:28:13.818Z,8.98
2024-03-03T22:30:46.599Z,9.01
2024-03-03T22:33:16.207Z,8.95
2024-03-03T22:35:45.707Z,8.96
2024-03-03T22:38:15.122Z,8.94
2024-03-03T22:40:44.557Z,8.90
2024-03-03T22:43:14.061Z,8.54
2024-03-03T22:45:44.619Z,8.85
2024-03-03T22:48:14.010Z,8.90
2024-03-03T22:50:43.082Z,8.82
2024-03-03T22:53:12.525Z,8.91
2024-03-03T22:55:42.696Z,8.94
2024-03-03T22:58:12.610Z,8.90
2024-03-03T23:00:43.327Z,8.92
2024-03-03T23:03:12.860Z,8.90
2024-03-03T23:05:42.086Z,8.80
2024-03-03T23:08:12.051Z,8.81
2024-03-03T23:10:41.416Z,8.77
2024-03-03T23:13:11.243Z,8.12
2024-03-03T23:15:40.384Z,8.80
2024-03-03T23:18:11.153Z,8.71
2024-03-03T23:20:40.477Z,8.72
2024-03-03T23:23:09.639Z,8.73
2024-03-03T23:25:39.204Z,8.72
2024-03-03T23:28:08.633Z,8.72
2024-03-03T23:30:38.276Z,8.73
2024-03-03T23:33:07.895Z,8.70
2024-03-03T23:35:38.342Z,8.67
2024-03-03T23:38:10.305Z,8.54
2024-03-03T23:40:39.868Z,8.54
2024-03-03T23:43:09.179Z,8.51
2024-03-03T23:45:38.384Z,8.56
2024-03-03T23:48:09.066Z,8.56
2024-03-03T23:50:39.984Z,8.56
2024-03-03T23:53:09.868Z,8.48
2024-03-03T23:55:39.139Z,7.90
2024-03-03T23:58:08.816Z,8.52
